Time;durP1;ratioP1;P1;durP2;ratioP2;P2;SDS_P1;SDS_P2;PMS_P1;PMS_P2;Temp;Humidity;BMP_temperature;BMP_pressure;BME280_temperature;BME280_humidity;BME280_pressure;Samples;Min_cycle;Max_cycle;Signal;HPM_P1;HPM_P2
2023/09/28 04:47:14;;;;;;;;;;;;;;;12.72;95.58;101024.84;106973;1274;22509;-45
2023/09/28 04:49:41;;;;;;;;;;;;;;;12.79;95.47;101025.55;110107;1273;22464;-47
2023/09/28 04:52:10;;;;;;;;;;;;;;;12.85;95.66;101032.56;110173;1267;22484;-43
2023/09/28 04:54:37;;;;;;;;;;;;;;;12.91;95.76;101031.89;110163;1271;22462;-46
2023/09/28 04:57:04;;;;;;;;;;;;;;;12.99;95.98;101027.70;110125;1267;22851;-46
2023/09/28 04:59:34;;;;;;;;;;;;;;;13.09;96.30;101031.91;109644;1269;22560;-46
2023/09/28 05:02:01;;;;;;;;;;;;;;;13.22;96.36;101030.20;108577;1273;22682;-40
2023/09/28 05:04:28;;;;;;;;;;;;;;;13.35;96.37;101033.90;109265;1264;23323;-45
2023/09/28 05:06:55;;;;;;;;;;;;;;;13.47;96.23;101032.33;110139;1270;22473;-45
2023/09/28 05:09:23;;;;;;;;;;;;;;;13.62;95.95;101031.27;109999;1270;22521;-45
2023/09/28 05:11:50;;;;;;;;;;;;;;;13.76;95.64;101030.20;110072;1270;22462;-45
2023/09/28 05:14:17;;;;;;;;;;;;;;;13.92;95.22;101030.88;109710;1270;22513;-45
2023/09/28 05:16:44;;;;;;;;;;;;;;;14.07;94.78;101030.14;109863;1267;22582;-41
2023/09/28 05:19:11;;;;;;;;;;;;;;;14.23;94.17;101029.91;109429;1267;22568;-45
2023/09/28 05:21:38;;;;;;;;;;;;;;;14.37;93.57;101034.08;109857;1270;22972;-41
2023/09/28 05:24:05;;;;;;;;;;;;;;;14.53;92.88;101035.80;109445;1261;23678;-42
2023/09/28 05:26:33;;;;;;;;;;;;;;;14.68;92.22;101034.49;109414;1272;22977;-42
2023/09/28 05:28:59;;;;;;;;;;;;;;;14.82;91.24;101033.52;109756;1263;24383;-39
2023/09/28 05:31:26;;;;;;;;;;;;;;;14.96;90.49;101033.27;109553;1270;22508;-41
2023/09/28 05:33:56;;;;;;;;;;;;;;;15.10;89.83;101034.94;109513;1267;23518;-41
2023/09/28 05:36:27;;;;;;;;;;;;;;;15.27;89.25;101035.69;109310;1273;22495;-41
2023/09/28 05:38:54;;;;;;;;;;;;;;;15.44;88.68;101034.52;109793;1275;22510;-44
2023/09/28 05:41:23;;;;;;;;;;;;;;;15.62;87.84;101034.37;109730;1271;22533;-41
2023/09/28 05:43:58;;;;;;;;;;;;;;;15.82;87.18;101035.79;108540;1278;22482;-42
2023/09/28 05:46:26;;;;;;;;;;;;;;;16.02;86.36;101037.16;109129;1273;22625;-40
2023/09/28 05:48:56;;;;;;;;;;;;;;;16.22;85.11;101049.08;109451;1272;23836;-46
2023/09/28 05:51:29;;;;;;;;;;;;;;;16.41;84.06;101043.05;109798;1258;23175;-45
2023/09/28 05:53:56;;;;;;;;;;;;;;;16.60;82.91;101043.34;109523;1271;22452;-45
2023/09/28 05:56:23;;;;;;;;;;;;;;;16.77;82.02;101039.45;109931;1272;22472;-46
2023/09/28 05:59:03;;;;;;;;;;;;;;;16.94;81.31;101038.50;109821;1272;22638;-47
2023/09/28 06:01:30;;;;;;;;;;;;;;;17.16;79.50;101037.13;109519;1272;22455;-42
2023/09/28 06:04:04;;;;;;;;;;;;;;;17.37;77.11;101033.62;108805;1272;22526;-41
2023/09/28 06:06:31;;;;;;;;;;;;;;;17.59;75.28;101034.47;109520;1264;22521;-46
2023/09/28 06:08:59;;;;;;;;;;;;;;;17.79;73.68;101032.20;108869;1274;22505;-42
2023/09/28 06:11:27;;;;;;;;;;;;;;;17.97;72.52;101033.29;109474;1270;22489;-46
2023/09/28 06:13:56;;;;;;;;;;;;;;;18.15;71.23;101030.48;108937;1268;23050;-46
2023/09/28 06:16:40;;;;;;;;;;;;;;;18.34;70.25;101028.86;109391;1272;24512;-46
2023/09/28 06:19:17;;;;;;;;;;;;;;;18.51;69.28;101029.73;109502;1269;23301;-41
2023/09/28 06:22:18;;;;;;;;;;;;;;;18.70;68.38;101032.18;109164;1270;23612;-45
2023/09/28 06:25:14;;;;;;;;;;;;;;;18.90;67.11;101035.29;108778;1272;25396;-46
2023/09/28 06:27:47;;;;;;;;;;;;;;;19.08;66.40;101030.45;109407;1269;23598;-44
2023/09/28 06:31:03;;;;;;;;;;;;;;;19.29;65.46;101032.26;109123;1271;24196;-46
2023/09/28 06:34:15;;;;;;;;;;;;;;;19.49;64.80;101033.87;109510;1267;23071;-46
2023/09/28 06:36:54;;;;;;;;;;;;;;;19.69;64.00;101034.80;108782;1276;23025;-42
2023/09/28 06:39:24;;;;;;;;;;;;;;;19.86;63.33;101034.53;109005;1270;22998;-41
2023/09/28 06:41:51;;;;;;;;;;;;;;;20.03;62.46;101040.10;109771;1269;23177;-42
2023/09/28 06:44:30;;;;;;;;;;;;;;;20.21;62.00;101038.52;108991;1269;22499;-46
2023/09/28 06:47:04;;;;;;;;;;;;;;;20.39;61.37;101036.45;109765;1276;23000;-47
2023/09/28 06:49:32;;;;;;;;;;;;;;;20.55;60.77;101033.49;109682;1274;22445;-46
2023/09/28 06:51:59;;;;;;;;;;;;;;;20.74;59.00;101038.60;109201;1271;22546;-46
2023/09/28 06:54:26;;;;;;;;;;;;;;;20.92;57.45;101037.34;109728;1269;22519;-46
2023/09/28 06:56:52;;;;;;;;;;;;;;;21.09;56.48;101029.91;109865;1270;23150;-46
2023/09/28 06:59:19;;;;;;;;;;;;;;;21.25;55.09;101025.84;109296;1270;23167;-46
2023/09/28 07:01:46;;;;;;;;;;;;;;;21.41;54.81;101028.36;109710;1268;22533;-47
2023/09/28 07:04:12;;;;;;;;;;;;;;;21.58;54.09;101027.81;109523;1269;22492;-42
2023/09/28 07:06:39;;;;;;;;;;;;;;;21.74;53.01;101024.75;110074;1270;23411;-46
2023/09/28 07:09:07;;;;;;;;;;;;;;;21.89;52.93;101030.09;109757;1270;165734;-46
2023/09/28 07:11:34;;;;;;;;;;;;;;;22.06;52.57;101031.80;109713;1261;22948;-47
2023/09/28 07:14:01;;;;;;;;;;;;;;;22.22;51.30;101031.94;109716;1270;25316;-42
2023/09/28 07:16:28;;;;;;;;;;;;;;;22.40;50.01;101033.42;109632;1270;23080;-42
2023/09/28 07:19:07;;;;;;;;;;;;;;;22.59;47.98;101036.96;109556;1270;23366;-42
2023/09/28 07:21:47;;;;;;;;;;;;;;;22.80;46.70;101039.71;109310;1272;24872;-42
2023/09/28 07:24:44;;;;;;;;;;;;;;;22.97;45.27;101036.41;108734;1272;22483;-47
2023/09/28 07:27:30;;;;;;;;;;;;;;;23.12;44.49;101031.53;109706;1271;23190;-42
2023/09/28 07:30:18;;;;;;;;;;;;;;;23.24;44.08;101034.06;109737;1268;23147;-43
2023/09/28 07:32:46;;;;;;;;;;;;;;;23.38;43.38;101031.73;109530;1274;23632;-47
2023/09/28 07:35:20;;;;;;;;;;;;;;;23.51;43.02;101030.62;109727;1276;22537;-43
2023/09/28 07:37:48;;;;;;;;;;;;;;;23.64;42.46;101027.08;109784;1263;22444;-46
2023/09/28 07:40:17;;;;;;;;;;;;;;;23.75;42.31;101022.52;109769;1270;22840;-46
2023/09/28 07:42:52;;;;;;;;;;;;;;;23.88;41.79;101020.52;109725;1269;22935;-47
2023/09/28 07:45:18;;;;;;;;;;;;;;;24.02;41.67;101021.71;109718;1269;23247;-46
2023/09/28 07:47:45;;;;;;;;;;;;;;;24.11;40.65;101022.33;109710;1270;22854;-47
2023/09/28 07:50:14;;;;;;;;;;;;;;;24.24;40.54;101017.14;109831;1270;22436;-47
2023/09/28 07:52:42;;;;;;;;;;;;;;;24.38;40.09;101014.73;109417;1270;23046;-42
2023/09/28 07:55:10;;;;;;;;;;;;;;;24.50;39.69;101011.15;109897;1266;22474;-41
2023/09/28 07:57:37;;;;;;;;;;;;;;;24.60;39.70;101011.92;109914;1270;23161;-43
2023/09/28 08:00:24;;;;;;;;;;;;;;;24.71;38.95;101010.19;110049;1272;22476;-43
2023/09/28 08:02:52;;;;;;;;;;;;;;;24.76;38.45;101010.10;109979;1272;22622;-43
2023/09/28 08:05:22;;;;;;;;;;;;;;;24.82;38.31;101004.80;109943;1270;22643;-47
2023/09/28 08:07:49;;;;;;;;;;;;;;;24.91;38.02;101004.73;109549;1270;22552;-47
2023/09/28 08:10:44;;;;;;;;;;;;;;;25.01;37.75;101003.00;109496;1276;22588;-41
2023/09/28 08:13:12;;;;;;;;;;;;;;;25.06;36.38;101000.13;109281;1272;22852;-46
2023/09/28 08:15:41;;;;;;;;;;;;;;;25.10;36.49;100997.95;109261;1267;22497;-47
2023/09/28 08:18:09;;;;;;;;;;;;;;;25.18;36.28;100994.90;109781;1276;22760;-43
2023/09/28 08:20:36;;;;;;;;;;;;;;;25.27;35.83;100997.64;109412;1267;23460;-43
2023/09/28 08:23:04;;;;;;;;;;;;;;;25.36;35.32;100999.85;109005;1270;26010;-46
2023/09/28 08:25:32;;;;;;;;;;;;;;;25.42;35.22;100996.55;109101;1269;22565;-43
2023/09/28 08:27:59;;;;;;;;;;;;;;;25.50;35.00;100990.09;109861;1270;23198;-43
2023/09/28 08:30:26;;;;;;;;;;;;;;;25.56;34.78;100989.20;109287;1256;23121;-46
2023/09/28 08:32:53;;;;;;;;;;;;;;;25.60;34.02;100984.89;109339;1267;22587;-46
2023/09/28 08:35:29;;;;;;;;;;;;;;;25.67;34.12;100990.05;109781;1270;23291;-42
2023/09/28 08:38:03;;;;;;;;;;;;;;;25.75;34.01;100987.16;108943;1269;22469;-43
2023/09/28 08:40:30;;;;;;;;;;;;;;;25.84;33.79;100983.34;109442;1270;23999;-42
2023/09/28 08:42:59;;;;;;;;;;;;;;;25.92;33.85;100978.06;108814;1271;23302;-47
2023/09/28 08:45:26;;;;;;;;;;;;;;;26.02;33.59;100974.67;109280;1270;22533;-42
2023/09/28 08:47:54;;;;;;;;;;;;;;;26.11;33.39;100976.50;109277;1270;22541;-47
2023/09/28 08:50:23;;;;;;;;;;;;;;;26.14;33.42;100973.88;109078;1270;22807;-47
2023/09/28 08:52:54;;;;;;;;;;;;;;;26.12;32.77;100972.52;108541;1270;23082;-46
2023/09/28 08:55:35;;;;;;;;;;;;;;;26.06;32.87;100973.35;108788;1270;22551;-47
2023/09/28 08:58:13;;;;;;;;;;;;;;;26.04;32.78;100969.58;108704;1263;22531;-46
2023/09/28 09:00:44;;;;;;;;;;;;;;;26.02;32.58;100969.29;108900;1273;22491;-42
2023/09/28 09:03:11;;;;;;;;;;;;;;;26.04;32.46;100963.34;109517;1272;22494;-42
2023/09/28 09:05:39;;;;;;;;;;;;;;;26.11;32.49;100958.84;109588;1272;22472;-47
2023/09/28 09:08:14;;;;;;;;;;;;;;;26.21;32.28;100957.20;109076;1271;25666;-43
2023/09/28 09:10:43;;;;;;;;;;;;;;;26.34;32.09;100953.43;109563;1270;22496;-46
2023/09/28 09:13:33;;;;;;;;;;;;;;;26.48;31.60;100950.70;109695;1275;23044;-42
2023/09/28 09:15:59;;;;;;;;;;;;;;;26.59;31.69;100953.16;109831;1270;23433;-43
2023/09/28 09:18:35;;;;;;;;;;;;;;;26.63;31.28;100945.08;108786;1272;23381;-44
2023/09/28 09:21:09;;;;;;;;;;;;;;;26.63;31.08;100943.95;108892;1274;22499;-46
2023/09/28 09:23:36;;;;;;;;;;;;;;;26.64;30.97;100938.54;109547;1270;22942;-42
2023/09/28 09:26:03;;;;;;;;;;;;;;;26.71;30.61;100936.54;109729;1272;23309;-42
2023/09/28 09:28:37;;;;;;;;;;;;;;;26.81;30.56;100936.67;109641;1270;22432;-42
2023/09/28 09:31:04;;;;;;;;;;;;;;;26.92;30.19;100936.59;109581;1270;22724;-47
2023/09/28 09:33:32;;;;;;;;;;;;;;;26.95;29.80;100935.69;109926;1269;22861;-46
2023/09/28 09:36:02;;;;;;;;;;;;;;;26.89;29.94;100929.94;109752;1270;22519;-47
2023/09/28 09:38:31;;;;;;;;;;;;;;;26.86;29.98;100930.16;109760;1276;22514;-47
2023/09/28 09:41:02;;;;;;;;;;;;;;;26.86;29.76;100926.90;109668;1269;24214;-43
2023/09/28 09:43:40;;;;;;;;;;;;;;;26.92;29.67;100924.23;109833;1270;23173;-45
2023/09/28 09:46:07;;;;;;;;;;;;;;;26.97;29.39;100915.69;109808;1275;22522;-43
2023/09/28 09:48:39;;;;;;;;;;;;;;;27.02;29.26;100912.18;109797;1272;22454;-43
2023/09/28 09:51:10;;;;;;;;;;;;;;;27.08;29.11;100913.11;109048;1270;23476;-46
2023/09/28 09:53:41;;;;;;;;;;;;;;;27.15;28.43;100910.96;109355;1275;22684;-42
2023/09/28 09:56:08;;;;;;;;;;;;;;;27.19;28.21;100911.21;109240;1270;23961;-46
2023/09/28 09:58:39;;;;;;;;;;;;;;;27.24;28.15;100911.27;109122;1269;24381;-46
2023/09/28 10:01:12;;;;;;;;;;;;;;;27.27;28.15;100907.87;108919;1271;22519;-43
2023/09/28 10:03:51;;;;;;;;;;;;;;;27.34;27.90;100904.23;109153;1270;22888;-42
2023/09/28 10:06:22;;;;;;;;;;;;;;;27.48;26.95;100907.70;108712;1271;22619;-43
2023/09/28 10:08:49;;;;;;;;;;;;;;;27.66;26.84;100905.52;109902;1270;23383;-47
2023/09/28 10:11:16;;;;;;;;;;;;;;;27.91;26.45;100908.11;109904;1262;22902;-47
2023/09/28 10:13:43;;;;;;;;;;;;;;;28.17;26.47;100900.49;109523;1269;22504;-42
2023/09/28 10:16:14;;;;;;;;;;;;;;;28.50;26.16;100893.75;109831;1270;23785;-45
2023/09/28 10:18:43;;;;;;;;;;;;;;;28.93;25.39;100887.70;109641;1269;22445;-47
2023/09/28 10:21:11;;;;;;;;;;;;;;;29.37;24.64;100889.52;109783;1277;22441;-43
2023/09/28 10:23:38;;;;;;;;;;;;;;;29.82;24.32;100888.73;109737;1270;22523;-47
2023/09/28 10:26:10;;;;;;;;;;;;;;;30.29;23.85;100886.27;109955;1270;23548;-47
2023/09/28 10:28:57;;;;;;;;;;;;;;;30.77;23.73;100879.67;109676;1271;22469;-43
2023/09/28 10:31:24;;;;;;;;;;;;;;;31.34;23.15;100881.80;109490;1269;23360;-43
2023/09/28 10:34:01;;;;;;;;;;;;;;;31.87;22.34;100884.48;109627;1272;23338;-46
2023/09/28 10:36:28;;;;;;;;;;;;;;;32.36;21.72;100881.06;109800;1269;23047;-47
2023/09/28 10:39:17;;;;;;;;;;;;;;;32.77;21.05;100869.67;109931;1269;22482;-42
2023/09/28 10:41:45;;;;;;;;;;;;;;;33.28;20.87;100869.86;109955;1269;22455;-47
2023/09/28 10:44:13;;;;;;;;;;;;;;;33.66;20.28;100866.61;109979;1272;22544;-48
2023/09/28 10:46:52;;;;;;;;;;;;;;;34.02;19.83;100858.84;109981;1268;22456;-43
2023/09/28 10:49:25;;;;;;;;;;;;;;;34.42;19.40;100863.61;110040;1269;22536;-43
2023/09/28 10:51:53;;;;;;;;;;;;;;;34.76;18.87;100857.39;108976;1259;22508;-44
2023/09/28 10:54:20;;;;;;;;;;;;;;;35.04;18.69;100856.59;109412;1273;22550;-47
2023/09/28 10:56:50;;;;;;;;;;;;;;;35.23;18.60;100852.79;109853;1269;23566;-56
2023/09/28 10:59:17;;;;;;;;;;;;;;;35.43;18.83;100851.40;109996;1272;22824;-47
2023/09/28 11:01:45;;;;;;;;;;;;;;;35.56;18.86;100853.77;109830;1267;23264;-55
2023/09/28 11:04:16;;;;;;;;;;;;;;;35.51;19.19;100851.55;109846;1270;23372;-54
2023/09/28 11:06:50;;;;;;;;;;;;;;;35.54;19.03;100850.06;109820;1272;22450;-55
2023/09/28 11:09:19;;;;;;;;;;;;;;;35.48;18.77;100851.70;110006;1268;23371;-55
2023/09/28 11:11:46;;;;;;;;;;;;;;;35.41;18.41;100847.92;109914;1270;23226;-55
2023/09/28 11:14:12;;;;;;;;;;;;;;;35.56;18.20;100845.52;109833;1269;23300;-55
2023/09/28 11:16:41;;;;;;;;;;;;;;;35.57;17.95;100842.25;109978;1270;22494;-55
2023/09/28 11:19:08;;;;;;;;;;;;;;;35.47;18.68;100840.89;109741;1272;22457;-46
2023/09/28 11:21:35;;;;;;;;;;;;;;;35.44;18.69;100841.70;109866;1270;22855;-45
2023/09/28 11:24:05;;;;;;;;;;;;;;;35.38;18.59;100836.08;109822;1270;22538;-46
2023/09/28 11:26:32;;;;;;;;;;;;;;;35.16;18.21;100836.98;109834;1267;22508;-47
2023/09/28 11:28:59;;;;;;;;;;;;;;;34.73;18.42;100832.88;109701;1272;22435;-47
2023/09/28 11:31:27;;;;;;;;;;;;;;;34.22;18.69;100833.56;109897;1268;22912;-46
2023/09/28 11:33:56;;;;;;;;;;;;;;;33.75;18.77;100832.90;108766;1269;22551;-55
2023/09/28 11:36:24;;;;;;;;;;;;;;;33.28;19.01;100831.02;108953;1268;25433;-53
2023/09/28 11:38:55;;;;;;;;;;;;;;;32.79;19.10;100822.45;109044;1271;24194;-55
2023/09/28 11:41:25;;;;;;;;;;;;;;;32.30;19.60;100824.15;110030;1269;23076;-55
2023/09/28 11:43:58;;;;;;;;;;;;;;;31.94;20.03;100830.52;109906;1270;22511;-47
2023/09/28 11:46:36;;;;;;;;;;;;;;;31.61;20.42;100827.04;109836;1269;23545;-46
2023/09/28 11:49:03;;;;;;;;;;;;;;;31.27;20.49;100822.90;109127;1267;22891;-46
2023/09/28 11:51:30;;;;;;;;;;;;;;;30.94;20.96;100819.70;109956;1271;22806;-46
2023/09/28 11:53:57;;;;;;;;;;;;;;;30.66;21.37;100820.88;109759;1271;23367;-49
2023/09/28 11:56:24;;;;;;;;;;;;;;;30.43;21.47;100812.56;109721;1268;22921;-55
2023/09/28 11:58:52;;;;;;;;;;;;;;;30.24;21.57;100813.94;108915;1271;22495;-47
2023/09/28 12:01:19;;;;;;;;;;;;;;;30.08;21.90;100816.21;109876;1267;22439;-46
2023/09/28 12:03:48;;;;;;;;;;;;;;;29.91;21.82;100816.15;109199;1271;23000;-47
2023/09/28 12:06:17;;;;;;;;;;;;;;;29.73;21.98;100814.77;109886;1269;23544;-46
2023/09/28 12:08:44;;;;;;;;;;;;;;;29.59;22.23;100815.76;109828;1270;22459;-47
2023/09/28 12:11:11;;;;;;;;;;;;;;;29.46;22.38;100815.41;109940;1274;22447;-46
2023/09/28 12:13:38;;;;;;;;;;;;;;;29.32;22.64;100810.10;109910;1269;22531;-55
2023/09/28 12:16:05;;;;;;;;;;;;;;;29.25;22.87;100810.30;109910;1276;22408;-55
2023/09/28 12:18:32;;;;;;;;;;;;;;;29.20;22.72;100809.91;109937;1265;22874;-55
2023/09/28 12:20:59;;;;;;;;;;;;;;;29.19;23.21;100802.08;109864;1276;22422;-56
2023/09/28 12:23:26;;;;;;;;;;;;;;;29.22;23.14;100800.08;109921;1269;22734;-54
2023/09/28 12:25:54;;;;;;;;;;;;;;;29.20;22.90;100796.98;109919;1266;22526;-55
2023/09/28 12:28:24;;;;;;;;;;;;;;;29.14;23.14;100791.25;109953;1269;23145;-55
2023/09/28 12:30:51;;;;;;;;;;;;;;;29.05;23.33;100790.97;109951;1276;22414;-55
2023/09/28 12:33:18;;;;;;;;;;;;;;;28.98;23.67;100792.41;109973;1269;22923;-45
2023/09/28 12:35:47;;;;;;;;;;;;;;;28.88;23.72;100784.95;109978;1272;22420;-46
2023/09/28 12:38:13;;;;;;;;;;;;;;;28.82;23.89;100780.02;110052;1276;22495;-47
2023/09/28 12:40:40;;;;;;;;;;;;;;;28.77;23.96;100779.11;110105;1267;23329;-46
2023/09/28 12:43:09;;;;;;;;;;;;;;;28.72;24.04;100777.80;110079;1276;22998;-45
2023/09/28 12:45:36;;;;;;;;;;;;;;;28.74;24.13;100776.96;110007;1260;23267;-47
2023/09/28 12:48:03;;;;;;;;;;;;;;;28.81;24.04;100775.58;110175;1269;22436;-46
2023/09/28 12:50:30;;;;;;;;;;;;;;;28.96;23.98;100769.02;110085;1276;23091;-46
2023/09/28 12:52:57;;;;;;;;;;;;;;;29.16;23.89;100770.84;110040;1263;22980;-52
2023/09/28 12:55:24;;;;;;;;;;;;;;;29.24;23.83;100772.27;110139;1276;22464;-45
2023/09/28 12:57:51;;;;;;;;;;;;;;;29.25;23.71;100771.52;110193;1269;22426;-46
2023/09/28 13:00:18;;;;;;;;;;;;;;;29.29;23.67;100771.55;110249;1266;22434;-47
2023/09/28 13:02:46;;;;;;;;;;;;;;;29.40;23.74;100768.57;110282;1276;22409;-54
2023/09/28 13:05:17;;;;;;;;;;;;;;;29.43;23.85;100766.61;110165;1266;23094;-46
2023/09/28 13:07:44;;;;;;;;;;;;;;;29.40;23.89;100766.79;110242;1269;23466;-45
2023/09/28 13:10:15;;;;;;;;;;;;;;;29.28;23.79;100764.22;110198;1276;22467;-46
2023/09/28 13:12:43;;;;;;;;;;;;;;;29.11;23.92;100763.80;110199;1266;22461;-54
2023/09/28 13:15:09;;;;;;;;;;;;;;;28.97;24.30;100768.21;110185;1266;23400;-54
2023/09/28 13:17:36;;;;;;;;;;;;;;;28.80;24.18;100763.42;110015;1269;22920;-54
2023/09/28 13:20:09;;;;;;;;;;;;;;;28.66;24.48;100760.45;110117;1277;23266;-54
2023/09/28 13:22:39;;;;;;;;;;;;;;;28.65;24.73;100756.76;110153;1266;22491;-53
2023/09/28 13:25:08;;;;;;;;;;;;;;;28.69;24.92;100758.66;109187;1275;22590;-47
2023/09/28 13:27:34;;;;;;;;;;;;;;;28.80;24.65;100757.86;109320;1268;22498;-47
2023/09/28 13:30:08;;;;;;;;;;;;;;;28.94;24.60;100753.85;110256;1276;22429;-46
2023/09/28 13:32:35;;;;;;;;;;;;;;;29.08;24.38;100759.52;110145;1266;22482;-54
2023/09/28 13:35:05;;;;;;;;;;;;;;;29.06;24.30;100761.83;110315;1275;22428;-46
2023/09/28 13:37:32;;;;;;;;;;;;;;;29.02;24.42;100758.49;108047;1266;22629;-46
2023/09/28 13:40:00;;;;;;;;;;;;;;;28.93;24.42;100752.33;108787;1269;22532;-55
2023/09/28 13:42:28;;;;;;;;;;;;;;;28.80;24.64;100749.26;110242;1277;22426;-56
2023/09/28 13:44:59;;;;;;;;;;;;;;;28.70;24.65;100745.85;110277;1277;22427;-53
2023/09/28 13:47:26;;;;;;;;;;;;;;;28.58;24.82;100748.41;110292;1275;22405;-54
2023/09/28 13:49:55;;;;;;;;;;;;;;;28.61;25.03;100747.91;110279;1266;23265;-47
2023/09/28 13:52:21;;;;;;;;;;;;;;;28.70;25.17;100746.75;110231;1266;22412;-54
2023/09/28 13:54:49;;;;;;;;;;;;;;;28.63;25.10;100743.42;110248;1277;22482;-54
2023/09/28 13:57:16;;;;;;;;;;;;;;;28.57;25.34;100743.87;109459;1277;22568;-47
2023/09/28 13:59:43;;;;;;;;;;;;;;;28.51;25.44;100746.24;110298;1266;22509;-46
2023/09/28 14:02:12;;;;;;;;;;;;;;;28.45;25.59;100747.54;109407;1272;22496;-45
2023/09/28 14:04:39;;;;;;;;;;;;;;;28.47;25.59;100745.98;110228;1277;22448;-55
2023/09/28 14:07:06;;;;;;;;;;;;;;;28.45;25.57;100748.05;110320;1275;22451;-46
2023/09/28 14:09:32;;;;;;;;;;;;;;;28.53;25.69;100752.17;110293;1266;23671;-47
2023/09/28 14:12:00;;;;;;;;;;;;;;;28.70;25.53;100750.90;110234;1266;22471;-54
2023/09/28 14:14:27;;;;;;;;;;;;;;;28.74;25.49;100758.50;110282;1277;22441;-46
2023/09/28 14:16:54;;;;;;;;;;;;;;;28.77;25.35;100755.95;110100;1275;22480;-54
